Time;durP1;ratioP1;P1;durP2;ratioP2;P2;SDS_P1;SDS_P2;PMS_P1;PMS_P2;Temp;Humidity;BMP_temperature;BMP_pressure;BME280_temperature;BME280_humidity;BME280_pressure;Samples;Min_cycle;Max_cycle;Signal;HPM_P1;HPM_P2
2022/07/17 12:16:57;;;;;;;3.38;1.42;;;;;;;;;;5059562;27;20428;-84
2022/07/17 12:19:24;;;;;;;4.03;1.67;;;;;;;;;;5038935;28;20047;-83
2022/07/17 12:22:01;;;;;;;5.18;1.67;;;;;;;;;;5016607;28;20076;-83
2022/07/17 12:24:38;;;;;;;2.42;1.50;;;;;;;;;;5030180;28;20056;-86
2022/07/17 12:27:07;;;;;;;2.30;1.60;;;;;;;;;;5037530;28;20132;-84
2022/07/17 12:29:33;;;;;;;4.85;1.77;;;;;;;;;;5057195;28;20532;-84
2022/07/17 12:32:14;;;;;;;4.05;1.65;;;;;;;;;;5017359;28;20039;-85
2022/07/17 12:34:45;;;;;;;2.95;1.58;;;;;;;;;;5050483;28;20033;-85
2022/07/17 12:37:12;;;;;;;3.92;1.77;;;;;;;;;;5036319;28;20564;-84
2022/07/17 12:39:38;;;;;;;4.30;1.80;;;;;;;;;;5018545;28;20542;-84
2022/07/17 12:42:07;;;;;;;2.63;1.60;;;;;;;;;;5035331;28;20112;-83
2022/07/17 12:47:07;;;;;;;4.10;1.35;;;;;;;;;;5017581;28;20401;-82
2022/07/17 12:49:33;;;;;;;4.53;1.55;;;;;;;;;;5005695;28;20093;-81
2022/07/17 12:51:59;;;;;;;6.22;2.05;;;;;;;;;;4988545;28;20030;-81
2022/07/17 12:54:25;;;;;;;5.38;1.50;;;;;;;;;;4988711;28;20396;-82
2022/07/17 12:56:50;;;;;;;4.47;1.60;;;;;;;;;;5015101;28;20047;-83
2022/07/17 12:59:16;;;;;;;4.65;1.88;;;;;;;;;;5028087;28;20037;-83
2022/07/17 13:01:42;;;;;;;2.53;1.40;;;;;;;;;;5027061;28;20128;-83
2022/07/17 13:04:08;;;;;;;3.60;1.40;;;;;;;;;;5027394;28;20045;-83
2022/07/17 13:06:34;;;;;;;3.65;1.58;;;;;;;;;;5043809;28;20034;-83
2022/07/17 13:09:00;;;;;;;3.72;1.67;;;;;;;;;;5027960;28;20033;-83
2022/07/17 13:11:26;;;;;;;5.82;1.70;;;;;;;;;;5028186;28;20033;-83
2022/07/17 13:13:53;;;;;;;3.10;1.65;;;;;;;;;;5043605;28;20048;-83
2022/07/17 13:16:19;;;;;;;3.60;1.35;;;;;;;;;;5028334;28;20037;-82
2022/07/17 13:18:45;;;;;;;5.07;1.70;;;;;;;;;;5027559;28;20506;-83
2022/07/17 13:21:10;;;;;;;3.55;1.60;;;;;;;;;;5037844;28;20041;-83
2022/07/17 13:23:36;;;;;;;3.60;1.45;;;;;;;;;;4989674;28;20042;-83
2022/07/17 13:26:03;;;;;;;4.78;1.70;;;;;;;;;;5020453;28;20034;-83
2022/07/17 13:28:29;;;;;;;4.20;1.27;;;;;;;;;;4987156;28;20088;-83
2022/07/17 13:30:56;;;;;;;4.60;1.70;;;;;;;;;;5012341;28;20069;-84
2022/07/17 13:33:23;;;;;;;4.65;1.40;;;;;;;;;;5017583;28;20406;-85
2022/07/17 13:35:49;;;;;;;5.35;1.52;;;;;;;;;;5007019;28;20487;-85
2022/07/17 13:38:16;;;;;;;3.72;1.35;;;;;;;;;;5006799;28;20032;-85
2022/07/17 13:40:42;;;;;;;3.03;1.70;;;;;;;;;;5006589;28;20088;-85
2022/07/17 13:43:08;;;;;;;3.90;1.58;;;;;;;;;;5006311;28;20065;-86
2022/07/17 13:45:34;;;;;;;4.45;1.60;;;;;;;;;;5010430;28;20049;-85
2022/07/17 13:48:08;;;;;;;4.47;2.10;;;;;;;;;;5004332;28;20057;-85
2022/07/17 13:50:34;;;;;;;5.60;1.83;;;;;;;;;;5023224;28;20037;-84
2022/07/17 13:53:02;;;;;;;3.33;1.52;;;;;;;;;;5005965;28;20581;-84
2022/07/17 13:55:28;;;;;;;4.57;1.73;;;;;;;;;;5021951;28;20088;-84
2022/07/17 13:57:54;;;;;;;2.33;1.40;;;;;;;;;;4991835;28;20534;-84
2022/07/17 14:00:20;;;;;;;4.30;1.92;;;;;;;;;;4993381;28;20093;-84
2022/07/17 14:02:46;;;;;;;4.53;1.65;;;;;;;;;;4974152;28;20037;-83
2022/07/17 14:05:12;;;;;;;3.92;1.55;;;;;;;;;;4975561;28;20066;-82
2022/07/17 14:07:37;;;;;;;5.47;1.65;;;;;;;;;;5004303;28;20103;-83
2022/07/17 14:10:04;;;;;;;3.55;1.48;;;;;;;;;;4992727;28;20061;-82
2022/07/17 14:12:30;;;;;;;3.88;1.65;;;;;;;;;;4995647;28;20044;-83
2022/07/17 14:14:55;;;;;;;1.77;1.13;;;;;;;;;;5002607;28;20049;-83
2022/07/17 14:17:21;;;;;;;4.03;1.73;;;;;;;;;;5011782;28;20061;-83
2022/07/17 14:19:47;;;;;;;4.45;1.63;;;;;;;;;;5013265;28;20045;-83
2022/07/17 14:22:13;;;;;;;4.75;1.88;;;;;;;;;;5013724;28;20124;-84
2022/07/17 14:24:39;;;;;;;4.78;1.83;;;;;;;;;;5007705;28;20410;-83
2022/07/17 14:27:05;;;;;;;3.85;1.33;;;;;;;;;;5015037;28;20404;-83
2022/07/17 14:29:31;;;;;;;4.20;1.73;;;;;;;;;;4990979;28;20261;-85
2022/07/17 14:31:56;;;;;;;2.40;1.45;;;;;;;;;;4998005;28;20065;-84
2022/07/17 14:34:22;;;;;;;4.72;1.85;;;;;;;;;;5013933;28;20057;-84
2022/07/17 14:36:49;;;;;;;3.53;1.60;;;;;;;;;;5013914;28;20139;-85
2022/07/17 14:39:15;;;;;;;2.85;1.25;;;;;;;;;;5013179;28;20045;-86
2022/07/17 14:41:41;;;;;;;5.57;1.80;;;;;;;;;;5020100;28;20037;-86
2022/07/17 14:44:06;;;;;;;10.07;1.95;;;;;;;;;;4997213;28;20049;-86
2022/07/17 14:46:50;;;;;;;3.50;1.70;;;;;;;;;;4990032;28;20046;-86
2022/07/17 14:49:22;;;;;;;4.07;1.45;;;;;;;;;;4994974;28;20466;-86
2022/07/17 14:51:48;;;;;;;3.65;1.33;;;;;;;;;;4989391;28;20071;-84
2022/07/17 14:54:14;;;;;;;6.63;1.98;;;;;;;;;;4993208;28;20038;-85
2022/07/17 14:56:40;;;;;;;3.45;1.30;;;;;;;;;;5009672;28;20042;-86
2022/07/17 14:59:06;;;;;;;2.67;1.30;;;;;;;;;;5009205;28;20350;-84
2022/07/17 15:01:32;;;;;;;4.30;1.38;;;;;;;;;;4999173;28;20050;-85
2022/07/17 15:03:59;;;;;;;4.32;2.03;;;;;;;;;;4993137;28;20682;-85
2022/07/17 15:06:25;;;;;;;5.00;1.58;;;;;;;;;;4992453;28;20095;-83
2022/07/17 15:08:51;;;;;;;3.45;1.30;;;;;;;;;;5014338;28;20054;-84
2022/07/17 15:11:17;;;;;;;6.85;1.73;;;;;;;;;;4999947;28;20121;-83
2022/07/17 15:13:44;;;;;;;2.97;1.50;;;;;;;;;;4994708;28;20045;-83
2022/07/17 15:16:09;;;;;;;4.72;1.55;;;;;;;;;;5019725;28;20049;-85
2022/07/17 15:18:35;;;;;;;4.75;1.65;;;;;;;;;;5001198;28;20046;-84
2022/07/17 15:21:01;;;;;;;3.35;1.50;;;;;;;;;;5000118;28;20073;-83
2022/07/17 15:23:29;;;;;;;5.32;1.48;;;;;;;;;;5002668;28;20030;-85
2022/07/17 15:25:55;;;;;;;3.35;1.70;;;;;;;;;;5004041;28;20056;-82
2022/07/17 15:28:21;;;;;;;3.97;1.33;;;;;;;;;;4991895;28;20042;-84
2022/07/17 15:30:48;;;;;;;6.18;1.40;;;;;;;;;;5002111;28;20052;-85
2022/07/17 15:33:15;;;;;;;3.88;1.38;;;;;;;;;;5006757;28;20041;-86
2022/07/17 15:35:41;;;;;;;4.15;1.20;;;;;;;;;;5003253;28;20052;-85
2022/07/17 15:38:07;;;;;;;4.65;1.50;;;;;;;;;;4993933;28;20387;-86
2022/07/17 15:40:33;;;;;;;4.82;1.50;;;;;;;;;;5009049;28;20398;-83
2022/07/17 15:43:01;;;;;;;3.05;1.55;;;;;;;;;;5030261;28;20037;-83
2022/07/17 15:45:27;;;;;;;4.88;1.27;;;;;;;;;;5015566;28;20052;-82
2022/07/17 15:47:54;;;;;;;4.57;1.42;;;;;;;;;;5013549;28;20050;-83
2022/07/17 15:50:25;;;;;;;3.95;1.30;;;;;;;;;;5011267;28;20359;-83
2022/07/17 15:52:51;;;;;;;3.33;1.20;;;;;;;;;;5014621;28;20044;-83
2022/07/17 15:55:18;;;;;;;4.03;1.38;;;;;;;;;;5013144;28;20045;-84
2022/07/17 15:57:44;;;;;;;4.13;1.40;;;;;;;;;;5011749;28;20402;-88
2022/07/17 16:00:11;;;;;;;4.68;1.60;;;;;;;;;;5028832;28;20038;-82
2022/07/17 16:02:38;;;;;;;3.70;1.10;;;;;;;;;;5013500;28;20041;-83
2022/07/17 16:05:04;;;;;;;2.00;1.10;;;;;;;;;;5012720;28;20564;-82
2022/07/17 16:07:30;;;;;;;3.72;1.10;;;;;;;;;;4995276;28;20038;-83
2022/07/17 16:09:55;;;;;;;3.10;1.30;;;;;;;;;;4986827;28;20046;-83
2022/07/17 16:12:21;;;;;;;2.30;1.42;;;;;;;;;;5009415;28;20112;-83
2022/07/17 16:14:48;;;;;;;4.30;1.35;;;;;;;;;;4993551;28;20054;-83
2022/07/17 16:17:14;;;;;;;3.17;1.00;;;;;;;;;;4992898;28;20407;-83
2022/07/17 16:19:40;;;;;;;4.10;1.58;;;;;;;;;;4993763;28;20045;-83
2022/07/17 16:22:06;;;;;;;3.08;1.27;;;;;;;;;;5011411;28;20033;-83
2022/07/17 16:24:31;;;;;;;4.05;1.50;;;;;;;;;;4994057;28;20326;-84
2022/07/17 16:26:57;;;;;;;3.78;1.33;;;;;;;;;;5009630;28;20069;-84
2022/07/17 16:29:23;;;;;;;4.15;1.30;;;;;;;;;;4994468;28;20240;-83
2022/07/17 16:31:49;;;;;;;2.75;1.23;;;;;;;;;;4993564;28;20034;-83
2022/07/17 16:34:15;;;;;;;3.20;1.13;;;;;;;;;;5008227;28;20431;-85
2022/07/17 16:36:44;;;;;;;3.72;1.25;;;;;;;;;;4990318;28;20096;-86
2022/07/17 16:39:09;;;;;;;4.68;1.50;;;;;;;;;;4989226;28;20045;-85
2022/07/17 16:41:35;;;;;;;2.00;1.15;;;;;;;;;;4991204;28;20072;-86
2022/07/17 16:44:01;;;;;;;3.35;1.35;;;;;;;;;;4985695;28;20122;-85
2022/07/17 16:46:27;;;;;;;5.70;1.27;;;;;;;;;;4985162;28;20066;-85
2022/07/17 16:48:54;;;;;;;5.53;1.25;;;;;;;;;;4990074;28;20080;-86
2022/07/17 16:51:22;;;;;;;2.63;1.02;;;;;;;;;;4951663;28;20053;-87
2022/07/17 16:53:48;;;;;;;2.92;1.20;;;;;;;;;;4964024;28;20048;-86
2022/07/17 16:56:46;;;;;;;5.93;1.40;;;;;;;;;;4956603;28;20045;-86
2022/07/17 16:59:20;;;;;;;2.28;1.02;;;;;;;;;;4966761;28;20037;-86
2022/07/17 17:02:07;;;;;;;3.15;1.25;;;;;;;;;;4979549;28;20041;-88
2022/07/17 17:04:54;;;;;;;5.20;1.25;;;;;;;;;;4980285;28;20519;-87
2022/07/17 17:07:34;;;;;;;5.57;1.23;;;;;;;;;;4964543;28;20038;-86
2022/07/17 17:10:24;;;;;;;5.57;1.63;;;;;;;;;;4976677;28;20414;-87
2022/07/17 17:12:52;;;;;;;2.45;1.13;;;;;;;;;;4978633;28;20206;-86
2022/07/17 17:15:22;;;;;;;6.70;1.17;;;;;;;;;;4993067;28;20046;-88
2022/07/17 17:17:54;;;;;;;4.43;1.35;;;;;;;;;;4997779;28;20152;-87
2022/07/17 17:20:20;;;;;;;3.38;1.25;;;;;;;;;;4983976;28;20478;-86
2022/07/17 17:22:45;;;;;;;4.47;1.25;;;;;;;;;;4985727;28;20045;-87
2022/07/17 17:25:12;;;;;;;3.55;1.08;;;;;;;;;;4986374;28;20038;-87
2022/07/17 17:27:51;;;;;;;3.15;1.27;;;;;;;;;;4968534;28;20034;-87
2022/07/17 17:30:19;;;;;;;4.65;1.10;;;;;;;;;;4988739;28;20050;-87
2022/07/17 17:32:45;;;;;;;3.35;1.10;;;;;;;;;;4980575;28;20653;-88
2022/07/17 17:35:11;;;;;;;4.25;1.33;;;;;;;;;;4992020;28;20121;-87
2022/07/17 17:37:42;;;;;;;3.20;1.30;;;;;;;;;;4986766;28;20049;-87
2022/07/17 17:40:13;;;;;;;1.70;0.90;;;;;;;;;;4983689;28;20045;-87
2022/07/17 17:42:59;;;;;;;3.08;1.35;;;;;;;;;;4949169;28;20059;-88
2022/07/17 17:45:25;;;;;;;3.15;1.20;;;;;;;;;;4991458;28;20049;-89
2022/07/17 17:48:02;;;;;;;1.77;1.05;;;;;;;;;;4990320;28;20543;-88
2022/07/17 17:50:30;;;;;;;2.45;1.08;;;;;;;;;;4984537;28;20034;-87
2022/07/17 17:53:08;;;;;;;3.83;1.25;;;;;;;;;;4983512;28;20100;-88
2022/07/17 17:56:07;;;;;;;4.93;1.27;;;;;;;;;;4975310;28;20037;-87
2022/07/17 17:58:39;;;;;;;4.50;1.55;;;;;;;;;;4988710;28;20082;-87
2022/07/17 18:01:26;;;;;;;2.40;1.10;;;;;;;;;;4945126;28;20080;-87
2022/07/17 18:03:51;;;;;;;;;;;;;;;;;;4966404;28;20091;-87
2022/07/17 18:06:21;;;;;;;2.35;0.82;;;;;;;;;;4954227;28;19918;-87
2022/07/17 18:08:47;;;;;;;2.38;1.10;;;;;;;;;;5003581;28;20038;-87
2022/07/17 18:11:37;;;;;;;2.20;1.10;;;;;;;;;;4982516;28;20574;-88
2022/07/17 18:14:03;;;;;;;2.90;1.17;;;;;;;;;;4946763;28;20113;-88
2022/07/17 18:16:31;;;;;;;2.17;1.00;;;;;;;;;;4966447;28;20057;-88
2022/07/17 18:19:02;;;;;;;4.60;1.20;;;;;;;;;;4973076;28;20052;-87
2022/07/17 18:21:35;;;;;;;3.30;1.15;;;;;;;;;;4963223;28;20045;-88
2022/07/17 18:24:04;;;;;;;2.35;1.13;;;;;;;;;;4972807;28;20056;-88
2022/07/17 18:26:59;;;;;;;;;;;;;;;;;;;;;
2022/07/17 18:29:38;;;;;;;3.95;1.27;;;;;;;;;;4972231;28;20797;-88
2022/07/17 18:32:22;;;;;;;4.40;1.40;;;;;;;;;;4959507;28;20140;-89
2022/07/17 18:35:15;;;;;;;3.33;0.95;;;;;;;;;;4991178;28;20775;-88
2022/07/17 18:37:54;;;;;;;4.90;1.30;;;;;;;;;;4990330;28;20049;-88
2022/07/17 18:40:40;;;;;;;3.83;1.42;;;;;;;;;;4999348;28;20042;-88
2022/07/17 18:43:06;;;;;;;3.90;1.35;;;;;;;;;;4991483;28;20069;-88
2022/07/17 18:45:33;;;;;;;4.18;1.30;;;;;;;;;;4993343;28;20416;-87
2022/07/17 18:48:00;;;;;;;3.45;1.30;;;;;;;;;;4971046;28;20042;-87
2022/07/17 18:50:37;;;;;;;3.38;1.27;;;;;;;;;;4988590;28;20048;-86
2022/07/17 18:53:05;;;;;;;3.97;1.80;;;;;;;;;;5014090;28;20058;-87
2022/07/17 18:55:33;;;;;;;3.75;1.85;;;;;;;;;;4999191;28;20655;-86
2022/07/17 18:58:01;;;;;;;2.80;1.40;;;;;;;;;;4998223;28;20041;-86
2022/07/17 19:00:28;;;;;;;5.18;1.52;;;;;;;;;;4974169;28;20038;-86
2022/07/17 19:03:03;;;;;;;3.65;1.25;;;;;;;;;;5007560;28;20051;-86
2022/07/17 19:05:30;;;;;;;3.47;1.02;;;;;;;;;;4999790;28;20048;-88
2022/07/17 19:07:57;;;;;;;2.85;1.00;;;;;;;;;;5008812;28;20503;-87
2022/07/17 19:10:24;;;;;;;4.05;1.30;;;;;;;;;;4991838;28;20014;-84
2022/07/17 19:12:50;;;;;;;5.82;1.55;;;;;;;;;;5009901;28;20053;-84
2022/07/17 19:15:16;;;;;;;3.47;1.48;;;;;;;;;;4999381;28;20181;-83
2022/07/17 19:17:42;;;;;;;1.90;1.20;;;;;;;;;;5004530;28;20121;-83
2022/07/17 19:20:09;;;;;;;5.65;1.52;;;;;;;;;;5003511;28;20111;-84
2022/07/17 19:22:36;;;;;;;3.00;1.38;;;;;;;;;;5003305;28;20559;-84
2022/07/17 19:25:01;;;;;;;4.47;1.65;;;;;;;;;;5020884;28;20040;-86
2022/07/17 19:27:27;;;;;;;5.53;1.40;;;;;;;;;;4998294;28;20763;-84
2022/07/17 19:29:53;;;;;;;3.42;1.27;;;;;;;;;;5016425;28;20625;-83
2022/07/17 19:32:20;;;;;;;6.97;1.58;;;;;;;;;;5001349;28;20391;-84
2022/07/17 19:34:47;;;;;;;3.42;1.42;;;;;;;;;;4996361;28;20062;-84
2022/07/17 19:37:13;;;;;;;2.97;1.63;;;;;;;;;;5015700;28;20034;-84
2022/07/17 19:39:39;;;;;;;3.60;1.40;;;;;;;;;;5014589;28;20243;-84
2022/07/17 19:42:05;;;;;;;4.00;1.65;;;;;;;;;;4999346;28;20029;-84
2022/07/17 19:44:31;;;;;;;2.08;1.38;;;;;;;;;;5014126;28;20041;-85
2022/07/17 19:46:57;;;;;;;5.07;1.50;;;;;;;;;;5016957;28;20096;-83
2022/07/17 19:49:23;;;;;;;2.65;1.50;;;;;;;;;;4998840;28;20045;-83
2022/07/17 19:51:48;;;;;;;3.53;1.40;;;;;;;;;;4986714;28;20475;-83
2022/07/17 19:54:14;;;;;;;3.13;1.60;;;;;;;;;;5008161;28;20054;-83
2022/07/17 19:56:40;;;;;;;2.40;1.30;;;;;;;;;;5001708;28;20101;-83
2022/07/17 19:59:08;;;;;;;2.88;1.45;;;;;;;;;;5004615;28;20487;-83
2022/07/17 20:01:34;;;;;;;3.58;1.27;;;;;;;;;;5002266;28;20049;-83
2022/07/17 20:04:00;;;;;;;3.17;1.27;;;;;;;;;;5017337;28;20033;-83
2022/07/17 20:06:26;;;;;;;4.25;1.63;;;;;;;;;;4997681;28;20041;-83
2022/07/17 20:08:52;;;;;;;2.22;1.50;;;;;;;;;;4999038;28;20082;-83
2022/07/17 20:11:18;;;;;;;4.65;1.80;;;;;;;;;;4992737;28;20029;-83
2022/07/17 20:13:44;;;;;;;3.42;2.10;;;;;;;;;;5000694;28;20045;-83
2022/07/17 20:16:10;;;;;;;6.20;2.00;;;;;;;;;;5002017;28;20108;-82
2022/07/17 20:18:37;;;;;;;6.15;2.13;;;;;;;;;;4997936;28;20447;-83
2022/07/17 20:21:04;;;;;;;3.53;1.75;;;;;;;;;;5015505;28;20662;-83
2022/07/17 20:23:30;;;;;;;2.33;1.60;;;;;;;;;;5000745;28;20037;-83
2022/07/17 20:25:56;;;;;;;4.85;2.08;;;;;;;;;;5000312;28;20075;-83
2022/07/17 20:28:22;;;;;;;4.55;1.42;;;;;;;;;;5001648;28;20038;-82
2022/07/17 20:30:48;;;;;;;4.32;1.67;;;;;;;;;;4999655;28;20156;-83
2022/07/17 20:33:14;;;;;;;3.67;1.63;;;;;;;;;;5000084;28;20047;-83
2022/07/17 20:35:45;;;;;;;2.88;1.30;;;;;;;;;;5012252;28;20038;-84
2022/07/17 20:38:11;;;;;;;2.45;1.35;;;;;;;;;;5014815;28;20044;-83
2022/07/17 20:40:37;;;;;;;1.80;1.42;;;;;;;;;;4999284;28;20438;-83
2022/07/17 20:43:03;;;;;;;1.88;1.30;;;;;;;;;;4992237;28;20038;-83
2022/07/17 20:45:28;;;;;;;2.33;1.58;;;;;;;;;;4995982;28;20340;-83
2022/07/17 20:47:54;;;;;;;3.95;1.95;;;;;;;;;;5014365;28;20042;-82
2022/07/17 20:50:21;;;;;;;3.42;1.45;;;;;;;;;;4995425;28;20041;-82
2022/07/17 20:52:47;;;;;;;3.80;1.70;;;;;;;;;;4999237;28;20344;-82
2022/07/17 20:55:13;;;;;;;4.07;1.42;;;;;;;;;;5018509;28;20048;-83
2022/07/17 20:57:39;;;;;;;2.38;1.60;;;;;;;;;;5003801;28;20061;-83
2022/07/17 21:00:06;;;;;;;2.30;1.60;;;;;;;;;;5009262;28;20459;-83
2022/07/17 21:02:32;;;;;;;3.60;2.00;;;;;;;;;;5009466;28;20464;-83
2022/07/17 21:05:00;;;;;;;3.40;1.38;;;;;;;;;;5026041;28;20042;-83
2022/07/17 21:07:25;;;;;;;4.38;2.20;;;;;;;;;;5006139;28;20029;-83
2022/07/17 21:09:51;;;;;;;4.13;2.05;;;;;;;;;;5012668;28;20457;-83
2022/07/17 21:12:17;;;;;;;2.42;1.55;;;;;;;;;;5010518;28;20045;-83
2022/07/17 21:14:43;;;;;;;3.10;1.10;;;;;;;;;;5012416;28;20502;-83
2022/07/17 21:17:09;;;;;;;3.65;1.10;;;;;;;;;;5005856;28;20052;-83
2022/07/17 21:19:35;;;;;;;3.67;1.30;;;;;;;;;;5006330;28;20057;-83
2022/07/17 21:22:03;;;;;;;3.60;1.25;;;;;;;;;;5000802;28;20057;-83
2022/07/17 21:24:29;;;;;;;1.48;1.05;;;;;;;;;;5003371;28;20037;-83
2022/07/17 21:26:55;;;;;;;3.13;1.60;;;;;;;;;;5006241;28;20044;-83
2022/07/17 21:29:21;;;;;;;4.25;1.40;;;;;;;;;;5004361;28;20499;-83
2022/07/17 21:31:48;;;;;;;7.22;1.60;;;;;;;;;;5002636;28;20034;-83
2022/07/17 21:34:13;;;;;;;3.58;1.30;;;;;;;;;;5006583;28;20042;-83
2022/07/17 21:36:39;;;;;;;3.78;1.13;;;;;;;;;;5003810;28;20046;-83
2022/07/17 21:39:07;;;;;;;3.60;1.58;;;;;;;;;;5000759;28;20431;-83
2022/07/17 21:41:33;;;;;;;3.58;1.50;;;;;;;;;;5005677;28;20040;-82
2022/07/17 21:43:58;;;;;;;4.38;1.42;;;;;;;;;;5004865;28;20045;-82
2022/07/17 21:46:24;;;;;;;3.90;1.55;;;;;;;;;;5007016;28;20049;-82
2022/07/17 21:48:50;;;;;;;4.95;1.55;;;;;;;;;;5005175;28;20038;-82
2022/07/17 21:51:16;;;;;;;5.10;1.90;;;;;;;;;;5007181;28;20047;-82
2022/07/17 21:53:41;;;;;;;2.88;1.30;;;;;;;;;;5023089;28;20618;-82
2022/07/17 21:56:07;;;;;;;2.70;1.20;;;;;;;;;;5025451;28;20098;-82
2022/07/17 21:58:38;;;;;;;3.00;1.63;;;;;;;;;;5003060;28;20050;-83
2022/07/17 22:01:05;;;;;;;3.92;1.50;;;;;;;;;;5004282;28;20041;-82
2022/07/17 22:03:31;;;;;;;3.50;1.33;;;;;;;;;;5004034;28;20090;-82
2022/07/17 22:05:57;;;;;;;4.25;1.92;;;;;;;;;;5005845;28;20050;-83
2022/07/17 22:08:23;;;;;;;4.50;1.40;;;;;;;;;;5003776;28;20470;-83
2022/07/17 22:10:49;;;;;;;2.75;1.40;;;;;;;;;;5005723;28;20109;-83
2022/07/17 22:13:15;;;;;;;4.03;1.58;;;;;;;;;;5004842;28;20653;-83
2022/07/17 22:15:41;;;;;;;2.45;1.63;;;;;;;;;;5005580;28;20044;-83
2022/07/17 22:18:07;;;;;;;3.53;1.52;;;;;;;;;;5021198;28;20041;-83
2022/07/17 22:20:34;;;;;;;3.72;1.48;;;;;;;;;;5003525;28;20037;-83
2022/07/17 22:23:00;;;;;;;1.80;1.40;;;;;;;;;;5002577;28;20045;-83
2022/07/17 22:25:26;;;;;;;1.55;1.30;;;;;;;;;;5017991;28;20124;-83
2022/07/17 22:27:53;;;;;;;5.30;1.70;;;;;;;;;;5004643;28;20037;-83
2022/07/17 22:30:19;;;;;;;3.67;1.85;;;;;;;;;;4998720;28;20073;-83
2022/07/17 22:32:45;;;;;;;5.90;2.72;;;;;;;;;;5003907;28;20174;-82
2022/07/17 22:35:11;;;;;;;5.28;2.70;;;;;;;;;;5023078;28;20049;-82
2022/07/17 22:37:37;;;;;;;4.68;2.60;;;;;;;;;;5003800;28;20406;-82
2022/07/17 22:40:04;;;;;;;5.40;2.92;;;;;;;;;;5003753;28;20124;-82
2022/07/17 22:42:30;;;;;;;4.43;2.55;;;;;;;;;;5018549;28;20048;-82
2022/07/17 22:44:55;;;;;;;4.30;2.72;;;;;;;;;;5003522;28;20042;-82
2022/07/17 22:47:21;;;;;;;4.55;3.50;;;;;;;;;;5002741;28;20301;-82
2022/07/17 22:49:47;;;;;;;5.20;2.92;;;;;;;;;;5002173;28;20044;-82
2022/07/17 22:52:13;;;;;;;5.20;3.40;;;;;;;;;;5001695;28;20099;-82
2022/07/17 22:54:38;;;;;;;5.63;2.72;;;;;;;;;;5003308;28;20125;-82
2022/07/17 22:57:05;;;;;;;5.38;2.75;;;;;;;;;;5001799;28;20045;-82
2022/07/17 22:59:33;;;;;;;7.13;3.05;;;;;;;;;;5005179;28;20069;-82
2022/07/17 23:01:59;;;;;;;3.72;2.60;;;;;;;;;;5018534;28;20042;-82
2022/07/17 23:04:25;;;;;;;3.85;2.65;;;;;;;;;;5004384;28;20029;-82
2022/07/17 23:06:52;;;;;;;4.88;2.30;;;;;;;;;;5013198;28;20064;-82
2022/07/17 23:09:21;;;;;;;3.10;1.52;;;;;;;;;;5010109;28;20093;-82
2022/07/17 23:11:47;;;;;;;4.25;2.38;;;;;;;;;;5011460;28;20449;-82
2022/07/17 23:14:13;;;;;;;3.58;1.83;;;;;;;;;;5024939;28;20375;-82
2022/07/17 23:16:38;;;;;;;2.85;1.95;;;;;;;;;;5007399;28;20080;-82
2022/07/17 23:19:04;;;;;;;4.03;2.22;;;;;;;;;;5013856;28;20095;-82
2022/07/17 23:21:30;;;;;;;5.90;2.45;;;;;;;;;;5012678;28;20033;-82
2022/07/17 23:23:59;;;;;;;5.53;2.33;;;;;;;;;;5006085;28;20546;-82
2022/07/17 23:26:25;;;;;;;3.60;2.10;;;;;;;;;;5013773;28;20038;-82
2022/07/17 23:28:52;;;;;;;4.03;2.10;;;;;;;;;;5027497;28;20044;-82
2022/07/17 23:31:19;;;;;;;4.13;2.60;;;;;;;;;;5028575;28;20041;-82
2022/07/17 23:33:44;;;;;;;2.75;2.03;;;;;;;;;;5025644;28;20037;-82
2022/07/17 23:36:10;;;;;;;2.67;2.30;;;;;;;;;;5011892;28;20083;-82
2022/07/17 23:38:36;;;;;;;4.85;1.98;;;;;;;;;;5012387;28;20542;-82
2022/07/17 23:41:02;;;;;;;2.45;1.98;;;;;;;;;;5028588;28;20037;-82
2022/07/17 23:43:29;;;;;;;5.85;2.28;;;;;;;;;;5012926;28;20037;-82
2022/07/17 23:45:55;;;;;;;5.13;1.92;;;;;;;;;;5029494;28;20045;-82
2022/07/17 23:48:22;;;;;;;3.92;2.15;;;;;;;;;;5030157;28;20064;-82
2022/07/17 23:50:48;;;;;;;3.33;1.95;;;;;;;;;;5029651;28;20037;-82
2022/07/17 23:53:15;;;;;;;5.10;1.70;;;;;;;;;;5013127;28;20060;-82
2022/07/17 23:55:40;;;;;;;4.38;1.77;;;;;;;;;;5030218;28;20454;-82
2022/07/17 23:58:07;;;;;;;5.45;1.70;;;;;;;;;;5008750;28;20496;-82
